createdAt,value
2022-11-20T00:00:23.575Z,5.00
2022-11-20T00:02:55.501Z,5.00
2022-11-20T00:05:27.559Z,5.00
2022-11-20T00:07:59.593Z,5.00
2022-11-20T00:10:31.591Z,5.00
2022-11-20T00:13:05.401Z,5.00
2022-11-20T00:15:38.150Z,5.00
2022-11-20T00:18:10.072Z,5.00
2022-11-20T00:20:42.001Z,5.10
2022-11-20T00:23:13.994Z,5.00
2022-11-20T00:25:46.106Z,5.00
2022-11-20T00:28:18.475Z,5.00
2022-11-20T00:30:50.504Z,5.10
2022-11-20T00:33:22.471Z,5.00
2022-11-20T00:35:54.553Z,5.10
2022-11-20T00:38:46.580Z,5.10
2022-11-20T00:41:18.559Z,5.10
2022-11-20T00:43:53.367Z,5.00
2022-11-20T00:46:28.047Z,5.00
2022-11-20T00:49:00.246Z,5.00
2022-11-20T00:51:32.124Z,5.00
2022-11-20T00:54:04.263Z,5.00
2022-11-20T00:56:36.359Z,5.10
2022-11-20T00:59:10.480Z,5.10
2022-11-20T01:01:42.815Z,5.00
2022-11-20T01:04:14.787Z,5.10
2022-11-20T01:06:46.693Z,5.10
2022-11-20T01:09:18.955Z,5.10
2022-11-20T01:11:51.108Z,5.10
2022-11-20T01:14:23.043Z,5.00
2022-11-20T01:17:08.300Z,5.10
2022-11-20T01:19:40.193Z,5.00
2022-11-20T01:22:12.114Z,5.00
2022-11-20T01:24:44.053Z,5.00
2022-11-20T01:27:16.180Z,5.00
2022-11-20T01:29:48.122Z,4.90
2022-11-20T01:32:19.964Z,4.90
2022-11-20T01:34:51.932Z,4.90
2022-11-20T01:37:24.011Z,4.90
2022-11-20T01:39:56.035Z,4.90
2022-11-20T01:42:46.739Z,4.90
2022-11-20T01:46:00.250Z,4.80
2022-11-20T01:49:02.257Z,4.90
2022-11-20T01:52:02.822Z,4.80
2022-11-20T01:54:42.982Z,4.80
2022-11-20T01:57:21.684Z,4.90
2022-11-20T02:00:04.905Z,4.80
2022-11-20T02:02:46.080Z,4.90
2022-11-20T02:05:27.892Z,4.90
2022-11-20T02:08:13.571Z,4.90
2022-11-20T02:10:53.643Z,4.90
2022-11-20T02:13:44.155Z,4.90
2022-11-20T02:16:26.213Z,5.00
2022-11-20T02:19:03.275Z,4.90
2022-11-20T02:21:47.559Z,4.90
2022-11-20T02:24:27.449Z,4.90
2022-11-20T02:27:05.050Z,5.00
2022-11-20T02:29:58.429Z,5.00
2022-11-20T02:32:35.717Z,5.00
2022-11-20T02:35:21.212Z,5.00
2022-11-20T02:38:12.704Z,5.00
2022-11-20T02:40:45.725Z,5.00
2022-11-20T02:43:28.032Z,5.00
2022-11-20T02:45:59.929Z,5.00
2022-11-20T02:48:33.947Z,5.00
2022-11-20T02:51:06.208Z,5.00
2022-11-20T02:53:38.123Z,5.00
2022-11-20T02:56:10.086Z,5.10
2022-11-20T02:58:42.065Z,5.10
2022-11-20T03:01:14.508Z,5.10
2022-11-20T03:03:46.683Z,5.10
2022-11-20T03:06:20.164Z,5.10
2022-11-20T03:08:52.060Z,5.10
2022-11-20T03:11:24.057Z,5.10
2022-11-20T03:13:55.975Z,5.10
2022-11-20T03:16:27.993Z,5.10
2022-11-20T03:19:00.288Z,5.10
2022-11-20T03:21:34.328Z,5.10
2022-11-20T03:24:06.749Z,5.10
2022-11-20T03:26:40.363Z,5.00
2022-11-20T03:29:12.650Z,5.00
2022-11-20T03:31:44.750Z,5.00
2022-11-20T03:34:16.754Z,5.00
2022-11-20T03:36:48.709Z,5.00
2022-11-20T03:39:21.164Z,4.90
2022-11-20T03:41:53.353Z,4.90
2022-11-20T03:44:25.317Z,4.90
2022-11-20T03:46:58.520Z,4.90
2022-11-20T03:49:30.463Z,4.90
2022-11-20T03:52:02.294Z,4.90
2022-11-20T03:54:34.358Z,4.80
2022-11-20T03:57:06.327Z,4.80
2022-11-20T03:59:38.251Z,4.80
2022-11-20T04:02:10.132Z,4.80
2022-11-20T04:04:42.136Z,4.70
2022-11-20T04:07:14.103Z,4.80
2022-11-20T04:09:46.131Z,4.70
2022-11-20T04:12:18.059Z,4.70
2022-11-20T04:14:49.999Z,4.70
2022-11-20T04:17:21.925Z,4.70
2022-11-20T04:19:53.809Z,4.70
2022-11-20T04:22:25.913Z,4.70
2022-11-20T04:24:57.937Z,4.70
2022-11-20T04:27:31.635Z,4.70
2022-11-20T04:30:03.905Z,4.70
2022-11-20T04:32:36.311Z,4.70
2022-11-20T04:35:08.504Z,4.80
2022-11-20T04:37:46.798Z,4.80
2022-11-20T04:40:18.780Z,4.70
2022-11-20T04:42:50.710Z,4.70
2022-11-20T04:45:23.639Z,4.70
2022-11-20T04:47:56.720Z,4.70
2022-11-20T04:50:28.593Z,4.70
2022-11-20T04:53:00.424Z,4.70
2022-11-20T04:55:32.291Z,4.80
2022-11-20T04:58:04.687Z,4.80
2022-11-20T05:00:36.655Z,4.80
2022-11-20T05:03:08.992Z,4.90
2022-11-20T05:05:40.865Z,4.90
2022-11-20T05:08:12.747Z,4.90
2022-11-20T05:10:44.628Z,4.90
2022-11-20T05:13:16.523Z,4.90
2022-11-20T05:15:48.654Z,4.90
2022-11-20T05:18:20.775Z,4.90
2022-11-20T05:20:56.924Z,4.90
2022-11-20T05:23:31.169Z,4.90
2022-11-20T05:26:04.415Z,4.90
2022-11-20T05:28:37.584Z,4.90
2022-11-20T05:31:26.219Z,4.90
2022-11-20T05:33:59.209Z,4.90
2022-11-20T05:36:31.249Z,5.00
2022-11-20T05:39:03.671Z,5.00
2022-11-20T05:41:35.645Z,5.10
2022-11-20T05:44:07.709Z,5.10
2022-11-20T05:46:42.228Z,5.10
2022-11-20T05:49:14.131Z,5.20
2022-11-20T05:51:46.004Z,5.20
2022-11-20T05:54:17.990Z,5.20
2022-11-20T05:56:53.991Z,5.30
2022-11-20T05:59:25.974Z,5.30
2022-11-20T06:01:57.891Z,5.30
2022-11-20T06:04:30.013Z,5.30
2022-11-20T06:07:01.990Z,5.30
2022-11-20T06:09:34.421Z,5.30
2022-11-20T06:12:06.962Z,5.30
2022-11-20T06:14:38.973Z,5.40
2022-11-20T06:17:10.867Z,5.40
2022-11-20T06:19:42.844Z,5.40
2022-11-20T06:22:14.795Z,5.40
2022-11-20T06:24:49.083Z,5.40
2022-11-20T06:27:25.148Z,5.30
2022-11-20T06:29:57.060Z,5.30
2022-11-20T06:32:34.274Z,5.40
2022-11-20T06:35:06.529Z,5.30
2022-11-20T06:37:39.049Z,5.40
2022-11-20T06:40:11.576Z,5.40
2022-11-20T06:42:43.642Z,5.40
2022-11-20T06:45:15.781Z,5.40
2022-11-20T06:47:47.931Z,5.40
2022-11-20T06:50:19.918Z,5.40
2022-11-20T06:52:51.912Z,5.40
2022-11-20T06:55:23.895Z,5.40
2022-11-20T06:57:56.150Z,5.40
2022-11-20T07:00:28.395Z,5.50
2022-11-20T07:03:06.993Z,5.50
2022-11-20T07:05:40.966Z,5.50
2022-11-20T07:08:13.454Z,5.50
2022-11-20T07:10:45.393Z,5.50
2022-11-20T07:13:17.722Z,5.50
2022-11-20T07:16:23.799Z,5.50
2022-11-20T07:18:55.706Z,5.60
2022-11-20T07:21:27.967Z,5.60
2022-11-20T07:24:00.042Z,5.60
2022-11-20T07:26:32.255Z,5.60
2022-11-20T07:29:04.558Z,5.70
2022-11-20T07:31:36.575Z,5.70
2022-11-20T07:34:08.523Z,5.70
2022-11-20T07:36:40.794Z,5.70
2022-11-20T07:39:12.786Z,5.70
2022-11-20T07:41:44.713Z,5.70
2022-11-20T07:44:16.985Z,5.70
2022-11-20T07:46:56.757Z,5.80
2022-11-20T07:49:28.851Z,5.90
2022-11-20T07:52:04.707Z,5.90
2022-11-20T07:54:37.356Z,5.90
2022-11-20T07:57:09.795Z,6.00
2022-11-20T07:59:42.475Z,5.90
2022-11-20T08:02:14.599Z,5.90
2022-11-20T08:04:46.638Z,6.00
2022-11-20T08:07:18.774Z,6.00
2022-11-20T08:09:51.000Z,6.00
2022-11-20T08:12:41.491Z,6.00
2022-11-20T08:15:33.754Z,6.00
2022-11-20T08:18:30.031Z,6.00
2022-11-20T08:21:05.541Z,6.10
2022-11-20T08:23:37.571Z,6.10
2022-11-20T08:26:09.488Z,6.20
2022-11-20T08:28:41.709Z,6.20
2022-11-20T08:31:13.706Z,6.30
2022-11-20T08:33:45.830Z,6.40
2022-11-20T08:36:22.670Z,6.40
2022-11-20T08:38:56.597Z,6.50
2022-11-20T08:41:31.677Z,6.50
2022-11-20T08:44:07.715Z,6.60
2022-11-20T08:46:42.190Z,6.60
2022-11-20T08:49:16.279Z,6.70
2022-11-20T08:51:52.670Z,6.80
2022-11-20T08:54:26.926Z,6.80
2022-11-20T08:56:59.040Z,6.90
2022-11-20T08:59:58.648Z,6.90
2022-11-20T09:02:24.024Z,6.90
2022-11-20T09:04:56.471Z,6.90
2022-11-20T09:07:28.994Z,6.90
2022-11-20T09:10:22.741Z,6.90
2022-11-20T09:12:54.054Z,7.00
2022-11-20T09:15:27.383Z,7.00
2022-11-20T09:18:02.298Z,7.00
2022-11-20T09:20:35.081Z,7.00
2022-11-20T09:23:07.752Z,7.10
2022-11-20T09:25:40.011Z,7.10
2022-11-20T09:28:12.167Z,7.10
2022-11-20T09:30:44.457Z,7.10
2022-11-20T09:33:16.582Z,7.00
2022-11-20T09:35:49.010Z,7.10
2022-11-20T09:38:21.242Z,7.10
2022-11-20T09:40:59.489Z,7.00
2022-11-20T09:44:06.414Z,7.00
2022-11-20T09:47:12.179Z,7.00
2022-11-20T09:50:29.683Z,7.00
2022-11-20T09:53:16.233Z,7.00
2022-11-20T09:56:03.128Z,7.00
2022-11-20T09:58:46.024Z,6.90
2022-11-20T10:01:30.475Z,6.90
2022-11-20T10:04:14.708Z,6.90
2022-11-20T10:10:34.242Z,6.90
2022-11-20T10:13:16.484Z,6.90
2022-11-20T10:16:34.446Z,6.90
2022-11-20T10:20:11.165Z,6.80
2022-11-20T10:23:25.923Z,6.90
2022-11-20T10:26:24.096Z,6.80
2022-11-20T10:29:20.265Z,6.80
2022-11-20T10:32:10.759Z,6.80
2022-11-20T10:35:02.006Z,6.80
2022-11-20T10:37:50.210Z,6.80
2022-11-20T10:40:42.561Z,6.80
2022-11-20T10:43:33.367Z,6.80
2022-11-20T10:46:10.166Z,6.80
2022-11-20T10:48:48.127Z,6.80
2022-11-20T10:51:52.316Z,6.80
2022-11-20T10:54:56.490Z,6.70
2022-11-20T10:57:57.995Z,6.60
2022-11-20T11:00:39.818Z,6.60
2022-11-20T11:03:39.094Z,6.60
2022-11-20T11:06:27.439Z,6.70
2022-11-20T11:09:16.543Z,6.70
2022-11-20T11:11:53.367Z,6.70
2022-11-20T11:14:25.695Z,6.80
2022-11-20T11:17:00.190Z,6.80
2022-11-20T11:19:32.283Z,6.80
2022-11-20T11:22:19.824Z,6.80
2022-11-20T11:24:54.364Z,6.90
2022-11-20T11:27:27.561Z,7.00
2022-11-20T11:30:21.467Z,7.10
2022-11-20T11:33:07.578Z,7.20
2022-11-20T11:35:51.594Z,7.30
2022-11-20T11:38:46.605Z,7.40
2022-11-20T11:41:32.860Z,7.60
2022-11-20T11:44:54.164Z,7.70
2022-11-20T11:47:52.605Z,7.80
2022-11-20T11:50:30.438Z,8.00
2022-11-20T11:53:22.295Z,8.10
2022-11-20T11:56:11.396Z,8.30
2022-11-20T11:58:51.609Z,8.40
2022-11-20T12:02:01.215Z,8.40
2022-11-20T12:05:00.182Z,8.60
2022-11-20T12:08:12.350Z,8.60
2022-11-20T12:11:13.439Z,8.60
2022-11-20T12:14:25.147Z,8.60
2022-11-20T12:17:15.563Z,8.70
2022-11-20T12:19:48.048Z,8.80
2022-11-20T12:22:32.100Z,8.90
2022-11-20T12:25:28.036Z,9.00
2022-11-20T12:28:19.353Z,9.10
2022-11-20T12:31:21.924Z,9.20
2022-11-20T12:34:46.569Z,9.20
2022-11-20T12:38:01.560Z,9.30
2022-11-20T12:41:14.928Z,9.30
2022-11-20T12:44:43.730Z,9.30
2022-11-20T12:47:44.659Z,9.30
2022-11-20T12:51:14.993Z,9.30
2022-11-20T12:54:21.943Z,9.10
2022-11-20T12:57:13.995Z,8.80
2022-11-20T13:00:17.842Z,8.60
2022-11-20T13:03:11.305Z,8.40
2022-11-20T13:06:19.145Z,8.30
2022-11-20T13:08:57.803Z,8.20
2022-11-20T13:12:00.737Z,8.00
2022-11-20T13:14:44.516Z,8.00
2022-11-20T13:18:01.473Z,8.00
2022-11-20T13:20:37.620Z,7.90
2022-11-20T13:23:26.140Z,7.90
2022-11-20T13:26:14.949Z,8.00
2022-11-20T13:29:17.331Z,8.20
2022-11-20T13:31:50.515Z,8.40
2022-11-20T13:34:28.391Z,8.60
2022-11-20T13:37:01.991Z,8.80
2022-11-20T13:39:38.008Z,8.80
2022-11-20T13:42:13.528Z,8.80
2022-11-20T13:45:09.946Z,8.80
2022-11-20T13:47:55.644Z,8.70
2022-11-20T13:51:03.644Z,8.60
2022-11-20T13:53:58.506Z,8.50
2022-11-20T13:57:25.121Z,8.40
2022-11-20T14:00:20.939Z,8.40
2022-11-20T14:03:10.960Z,8.30
2022-11-20T14:06:06.402Z,8.30
2022-11-20T14:08:49.193Z,8.30
2022-11-20T14:11:32.457Z,8.20
2022-11-20T14:14:16.348Z,8.10
2022-11-20T14:16:52.084Z,8.00
2022-11-20T14:19:31.761Z,7.90
2022-11-20T14:22:09.889Z,7.90
2022-11-20T14:25:05.209Z,7.80
2022-11-20T14:28:02.792Z,7.80
2022-11-20T14:30:47.634Z,7.70
2022-11-20T14:33:21.264Z,7.70
2022-11-20T14:35:59.538Z,7.60
2022-11-20T14:38:33.843Z,7.60
2022-11-20T14:41:17.412Z,7.50
2022-11-20T14:43:58.627Z,7.50
2022-11-20T14:46:34.699Z,7.50
2022-11-20T14:49:11.473Z,7.50
2022-11-20T14:51:44.090Z,7.40
2022-11-20T14:54:23.448Z,7.40
2022-11-20T14:57:02.513Z,7.40
2022-11-20T14:59:36.664Z,7.30
2022-11-20T15:02:14.034Z,7.30
2022-11-20T15:04:51.242Z,7.30
2022-11-20T15:07:33.098Z,7.30
2022-11-20T15:10:12.411Z,7.20
2022-11-20T15:13:07.138Z,7.20
2022-11-20T15:15:48.062Z,7.10
2022-11-20T15:18:37.844Z,7.00
2022-11-20T15:21:17.644Z,7.00
2022-11-20T15:23:51.800Z,7.00
2022-11-20T15:26:29.299Z,6.90
2022-11-20T15:29:01.842Z,6.90
2022-11-20T15:31:35.456Z,6.80
2022-11-20T15:34:16.732Z,6.80
2022-11-20T15:36:49.356Z,6.70
2022-11-20T15:39:22.206Z,6.70
2022-11-20T15:41:54.914Z,6.60
2022-11-20T15:44:27.503Z,6.50
2022-11-20T15:47:00.914Z,6.50
2022-11-20T15:49:33.985Z,6.40
2022-11-20T15:52:10.213Z,6.30
2022-11-20T15:54:44.191Z,6.30
2022-11-20T15:57:16.965Z,6.20
2022-11-20T15:59:49.988Z,6.10
2022-11-20T16:02:22.893Z,6.10
2022-11-20T16:04:55.773Z,6.10
2022-11-20T16:07:28.532Z,6.00
2022-11-20T16:10:01.766Z,6.00
2022-11-20T16:12:55.196Z,6.00
2022-11-20T16:15:53.957Z,5.90
2022-11-20T16:18:35.743Z,5.90
2022-11-20T16:21:14.393Z,5.90
2022-11-20T16:23:47.359Z,5.90
2022-11-20T16:26:21.786Z,5.90
2022-11-20T16:28:55.033Z,5.90
2022-11-20T16:31:30.331Z,5.90
2022-11-20T16:34:11.885Z,5.90
2022-11-20T16:36:48.234Z,5.90
2022-11-20T16:39:23.927Z,5.90
2022-11-20T16:41:57.090Z,5.90
2022-11-20T16:44:29.453Z,5.90
2022-11-20T16:47:01.953Z,5.90
2022-11-20T16:49:34.680Z,6.00
2022-11-20T16:52:08.292Z,6.00
2022-11-20T16:54:41.405Z,6.00
2022-11-20T16:57:14.073Z,6.00
2022-11-20T16:59:47.603Z,6.00
2022-11-20T17:02:20.521Z,6.00
2022-11-20T17:04:53.624Z,6.00
2022-11-20T17:07:26.844Z,6.00
2022-11-20T17:10:00.986Z,6.00
2022-11-20T17:12:33.265Z,6.10
2022-11-20T17:15:06.660Z,6.10
2022-11-20T17:17:39.648Z,6.10
2022-11-20T17:20:13.886Z,6.10
2022-11-20T17:22:47.170Z,6.10
2022-11-20T17:25:20.725Z,6.10
2022-11-20T17:27:55.271Z,6.10
2022-11-20T17:30:27.874Z,6.10
2022-11-20T17:33:01.012Z,6.10
2022-11-20T17:35:37.221Z,6.10
2022-11-20T17:38:10.505Z,6.10
2022-11-20T17:40:44.029Z,6.20
2022-11-20T17:43:18.619Z,6.20
2022-11-20T17:45:51.131Z,6.20
2022-11-20T17:48:25.064Z,6.30
2022-11-20T17:51:02.623Z,6.30
2022-11-20T17:53:40.727Z,6.30
2022-11-20T17:56:34.627Z,6.40
2022-11-20T17:59:26.992Z,6.30
2022-11-20T18:02:03.662Z,6.40
2022-11-20T18:04:36.530Z,6.40
2022-11-20T18:07:10.008Z,6.40
2022-11-20T18:09:42.798Z,6.40
2022-11-20T18:12:16.036Z,6.40
2022-11-20T18:14:48.456Z,6.40
2022-11-20T18:17:21.168Z,6.40
2022-11-20T18:20:21.831Z,6.40
2022-11-20T18:22:48.462Z,6.40
2022-11-20T18:25:28.275Z,6.40
2022-11-20T18:28:01.859Z,6.40
2022-11-20T18:30:37.211Z,6.40
2022-11-20T18:33:10.299Z,6.40
2022-11-20T18:35:43.844Z,6.40
2022-11-20T18:38:16.645Z,6.40
2022-11-20T18:40:49.655Z,6.40
2022-11-20T18:43:42.259Z,6.40
2022-11-20T18:46:35.127Z,6.40
2022-11-20T18:49:08.022Z,6.40
2022-11-20T18:51:48.925Z,6.50
2022-11-20T18:54:26.346Z,6.50
2022-11-20T18:57:00.069Z,6.50
2022-11-20T18:59:37.092Z,6.50
2022-11-20T19:02:12.685Z,6.40
2022-11-20T19:04:48.697Z,6.40
2022-11-20T19:07:21.626Z,6.30
2022-11-20T19:09:54.339Z,6.20
2022-11-20T19:12:28.661Z,6.20
2022-11-20T19:15:02.239Z,6.20
2022-11-20T19:17:36.570Z,6.10
2022-11-20T19:20:10.213Z,6.10
2022-11-20T19:22:44.506Z,6.10
2022-11-20T19:25:23.607Z,6.10
2022-11-20T19:27:57.184Z,6.10
2022-11-20T19:30:31.593Z,6.10
2022-11-20T19:33:05.239Z,6.10
2022-11-20T19:35:41.821Z,6.10
2022-11-20T19:38:17.074Z,6.10
2022-11-20T19:40:52.278Z,6.00
2022-11-20T19:43:25.634Z,6.00
2022-11-20T19:45:59.466Z,6.00
2022-11-20T19:48:34.213Z,5.90
2022-11-20T19:51:10.959Z,5.90
2022-11-20T19:53:47.805Z,5.90
2022-11-20T19:56:22.403Z,5.90
2022-11-20T19:58:58.358Z,5.90
2022-11-20T20:01:32.387Z,5.80
2022-11-20T20:04:07.296Z,5.80
2022-11-20T20:06:42.590Z,5.80
2022-11-20T20:09:16.618Z,5.70
2022-11-20T20:11:50.494Z,5.70
2022-11-20T20:14:24.256Z,5.70
2022-11-20T20:16:58.064Z,5.60
2022-11-20T20:19:35.333Z,5.60
2022-11-20T20:22:10.396Z,5.60
2022-11-20T20:24:43.793Z,5.60
2022-11-20T20:27:17.257Z,5.60
2022-11-20T20:29:50.666Z,5.60
2022-11-20T20:32:32.360Z,5.50
2022-11-20T20:35:07.048Z,5.60
2022-11-20T20:37:41.368Z,5.50
2022-11-20T20:40:19.545Z,5.60
2022-11-20T20:42:55.484Z,5.50
2022-11-20T20:45:29.140Z,5.50
2022-11-20T20:48:04.848Z,5.50
2022-11-20T20:50:38.123Z,5.50
2022-11-20T20:53:11.177Z,5.50
2022-11-20T20:55:53.547Z,5.50
2022-11-20T20:58:31.854Z,5.50
2022-11-20T21:01:10.431Z,5.50
2022-11-20T21:03:46.234Z,5.50
2022-11-20T21:06:19.142Z,5.50
2022-11-20T21:08:57.965Z,5.50
2022-11-20T21:11:30.784Z,5.50
2022-11-20T21:14:03.897Z,5.50
2022-11-20T21:16:44.804Z,5.50
2022-11-20T21:19:18.390Z,5.50
2022-11-20T21:22:00.015Z,5.50
2022-11-20T21:24:36.167Z,5.50
2022-11-20T21:27:08.437Z,5.50
2022-11-20T21:29:40.631Z,5.50
2022-11-20T21:32:12.972Z,5.40
2022-11-20T21:34:45.020Z,5.40
2022-11-20T21:37:17.271Z,5.40
2022-11-20T21:39:52.090Z,5.30
2022-11-20T21:42:24.282Z,5.30
2022-11-20T21:44:56.368Z,5.20
2022-11-20T21:47:28.428Z,5.20
2022-11-20T21:50:00.459Z,5.20
2022-11-20T21:52:32.781Z,5.20
2022-11-20T21:55:05.510Z,5.30
2022-11-20T21:57:37.825Z,5.30
2022-11-20T22:00:12.177Z,5.30
2022-11-20T22:02:45.120Z,5.30
2022-11-20T22:05:17.733Z,5.30
2022-11-20T22:07:50.113Z,5.30
2022-11-20T22:10:22.117Z,5.30
2022-11-20T22:13:17.382Z,5.20
2022-11-20T22:16:09.835Z,5.20
2022-11-20T22:18:47.956Z,5.20
2022-11-20T22:21:24.370Z,5.20
2022-11-20T22:23:59.052Z,5.30
2022-11-20T22:26:39.677Z,5.30
2022-11-20T22:29:17.973Z,5.30
2022-11-20T22:31:53.024Z,5.30
2022-11-20T22:34:25.403Z,5.30
2022-11-20T22:36:58.544Z,5.40
2022-11-20T22:39:30.625Z,5.40
2022-11-20T22:42:02.668Z,5.40
2022-11-20T22:44:34.956Z,5.40
2022-11-20T22:47:11.248Z,5.40
2022-11-20T22:49:43.852Z,5.40
2022-11-20T22:52:15.817Z,5.40
2022-11-20T22:54:47.868Z,5.40
2022-11-20T22:57:19.858Z,5.30
2022-11-20T22:59:51.811Z,5.30
2022-11-20T23:02:23.995Z,5.30
2022-11-20T23:04:56.070Z,5.30
2022-11-20T23:07:28.430Z,5.30
2022-11-20T23:10:00.505Z,5.30
2022-11-20T23:12:32.557Z,5.30
2022-11-20T23:15:05.206Z,5.30
2022-11-20T23:17:38.171Z,5.20
2022-11-20T23:20:11.004Z,5.30
2022-11-20T23:22:43.054Z,5.30
2022-11-20T23:25:15.106Z,5.30
2022-11-20T23:27:47.225Z,5.30
2022-11-20T23:30:19.337Z,5.30
2022-11-20T23:32:51.671Z,5.20
2022-11-20T23:35:24.171Z,5.20
2022-11-20T23:37:56.277Z,5.20
2022-11-20T23:40:28.327Z,5.20
2022-11-20T23:43:15.421Z,5.10
2022-11-20T23:45:59.011Z,5.10
2022-11-20T23:48:36.947Z,5.10
2022-11-20T23:51:09.978Z,5.10
2022-11-20T23:53:42.142Z,5.10
2022-11-20T23:56:14.878Z,5.20
2022-11-20T23:58:47.114Z,5.20
